createdAt,value
2018-11-11T00:00:59.511Z,67.93
2018-11-11T00:03:30.883Z,67.93
2018-11-11T00:06:03.638Z,67.81
2018-11-11T00:08:34.888Z,67.95
2018-11-11T00:11:08.173Z,67.90
2018-11-11T00:13:40.978Z,67.90
2018-11-11T00:16:13.970Z,67.83
2018-11-11T00:18:46.968Z,67.99
2018-11-11T00:21:20.114Z,68.40
2018-11-11T00:23:53.250Z,68.13
2018-11-11T00:26:38.642Z,68.33
2018-11-11T00:29:11.612Z,68.64
2018-11-11T00:31:44.640Z,68.64
2018-11-11T00:34:18.624Z,68.56
2018-11-11T00:36:50.989Z,68.56
2018-11-11T00:39:24.139Z,68.97
2018-11-11T00:41:57.148Z,69.11
2018-11-11T00:44:36.137Z,69.10
2018-11-11T00:47:17.365Z,68.97
2018-11-11T00:49:50.485Z,68.86
2018-11-11T00:52:23.461Z,68.91
2018-11-11T00:55:02.022Z,68.29
2018-11-11T00:57:37.134Z,68.17
2018-11-11T01:00:19.917Z,68.07
2018-11-11T01:02:54.176Z,67.79
2018-11-11T01:05:38.245Z,67.79
2018-11-11T01:08:11.246Z,67.85
2018-11-11T01:10:44.129Z,67.79
2018-11-11T01:13:18.236Z,67.61
2018-11-11T01:16:01.646Z,67.84
2018-11-11T01:18:34.680Z,67.79
2018-11-11T01:21:10.511Z,67.65
2018-11-11T01:23:41.888Z,67.51
2018-11-11T01:26:14.648Z,67.86
2018-11-11T01:28:47.664Z,68.39
2018-11-11T01:31:20.499Z,68.48
2018-11-11T01:33:55.256Z,68.48
2018-11-11T01:36:28.124Z,68.47
2018-11-11T01:39:13.572Z,68.49
2018-11-11T01:41:49.583Z,68.58
2018-11-11T01:44:36.833Z,68.23
2018-11-11T01:47:09.652Z,67.84
2018-11-11T01:49:42.698Z,67.38
2018-11-11T01:52:16.698Z,67.25
2018-11-11T01:54:49.539Z,67.37
2018-11-11T01:57:20.889Z,67.70
2018-11-11T01:59:53.948Z,67.70
2018-11-11T02:02:33.796Z,67.49
2018-11-11T02:05:09.340Z,67.25
2018-11-11T02:07:48.640Z,67.43
2018-11-11T02:10:28.652Z,67.39
2018-11-11T02:13:05.415Z,67.60
2018-11-11T02:15:36.882Z,67.59
2018-11-11T02:18:11.651Z,67.58
2018-11-11T02:20:44.587Z,67.94
2018-11-11T02:23:26.599Z,68.41
2018-11-11T02:25:59.465Z,68.29
2018-11-11T02:28:38.845Z,68.26
2018-11-11T02:31:12.651Z,68.59
2018-11-11T02:33:45.647Z,68.21
2018-11-11T02:36:18.655Z,68.21
2018-11-11T02:38:52.439Z,67.99
2018-11-11T02:41:24.042Z,67.67
2018-11-11T02:43:57.153Z,67.39
2018-11-11T02:46:38.255Z,67.53
2018-11-11T02:49:17.534Z,67.47
2018-11-11T02:51:49.015Z,67.49
2018-11-11T02:54:22.246Z,67.80
2018-11-11T02:56:57.131Z,67.46
2018-11-11T02:59:30.247Z,67.64
2018-11-11T03:02:04.403Z,67.49
2018-11-11T03:04:38.664Z,67.47
2018-11-11T03:07:11.660Z,68.34
2018-11-11T03:09:44.713Z,68.67
2018-11-11T03:12:17.701Z,68.56
2018-11-11T03:14:51.628Z,68.29
2018-11-11T03:17:24.554Z,68.43
2018-11-11T03:19:57.474Z,68.43
2018-11-11T03:22:30.496Z,68.34
2018-11-11T03:25:04.016Z,68.14
2018-11-11T03:27:37.243Z,67.86
2018-11-11T03:30:14.510Z,67.70
2018-11-11T03:32:47.984Z,67.53
2018-11-11T03:35:20.757Z,67.29
2018-11-11T03:37:53.753Z,67.33
2018-11-11T03:40:26.720Z,67.33
2018-11-11T03:43:05.886Z,67.46
2018-11-11T03:45:38.615Z,67.46
2018-11-11T03:48:14.685Z,67.52
2018-11-11T03:50:47.799Z,67.88
2018-11-11T03:53:22.669Z,67.88
2018-11-11T03:55:55.813Z,67.97
2018-11-11T03:58:28.636Z,68.40
2018-11-11T04:01:01.536Z,68.40
2018-11-11T04:03:38.889Z,68.15
2018-11-11T04:06:13.966Z,67.94
2018-11-11T04:08:47.404Z,67.83
2018-11-11T04:11:20.433Z,67.79
2018-11-11T04:13:53.534Z,67.63
2018-11-11T04:16:25.890Z,67.53
2018-11-11T04:18:58.794Z,67.41
2018-11-11T04:21:32.844Z,67.49
2018-11-11T04:24:05.692Z,67.36
2018-11-11T04:26:38.796Z,67.08
2018-11-11T04:29:11.687Z,67.08
2018-11-11T04:31:44.707Z,66.50
2018-11-11T04:34:17.717Z,66.49
2018-11-11T04:36:50.741Z,66.42
2018-11-11T04:39:23.733Z,66.35
2018-11-11T04:41:57.722Z,66.14
2018-11-11T04:44:30.673Z,66.04
2018-11-11T04:47:03.659Z,65.85
2018-11-11T04:49:38.725Z,65.84
2018-11-11T04:52:11.770Z,65.75
2018-11-11T04:54:45.670Z,65.75
2018-11-11T04:57:19.455Z,66.00
2018-11-11T04:59:50.892Z,66.05
2018-11-11T05:02:24.973Z,66.21
2018-11-11T05:05:05.249Z,66.36
2018-11-11T05:07:38.160Z,66.27
2018-11-11T05:10:11.673Z,66.37
2018-11-11T05:12:44.634Z,66.44
2018-11-11T05:15:17.671Z,66.31
2018-11-11T05:17:52.789Z,66.50
2018-11-11T05:20:27.640Z,66.50
2018-11-11T05:23:03.709Z,66.79
2018-11-11T05:25:37.719Z,67.69
2018-11-11T05:28:11.745Z,67.69
2018-11-11T05:30:44.685Z,67.59
2018-11-11T05:33:18.781Z,67.78
2018-11-11T05:35:51.682Z,67.78
2018-11-11T05:38:24.707Z,67.80
2018-11-11T05:41:03.690Z,67.93
2018-11-11T05:43:37.724Z,67.98
2018-11-11T05:46:10.764Z,67.74
2018-11-11T05:48:43.658Z,67.46
2018-11-11T05:51:17.649Z,67.46
2018-11-11T05:53:50.805Z,66.94
2018-11-11T05:56:23.642Z,66.94
2018-11-11T05:58:56.699Z,66.39
2018-11-11T06:01:29.665Z,66.59
2018-11-11T06:04:03.507Z,66.59
2018-11-11T06:06:42.771Z,66.76
2018-11-11T06:09:19.952Z,66.48
2018-11-11T06:11:53.244Z,66.48
2018-11-11T06:14:27.515Z,66.67
2018-11-11T06:16:58.995Z,66.14
2018-11-11T06:19:31.941Z,65.98
2018-11-11T06:25:03.093Z,67.24
2018-11-11T06:27:36.121Z,67.24
2018-11-11T06:30:10.261Z,67.09
2018-11-11T06:32:43.153Z,66.68
2018-11-11T06:35:16.130Z,66.45
2018-11-11T06:37:49.118Z,66.31
2018-11-11T06:40:22.132Z,65.95
2018-11-11T06:42:55.272Z,65.66
2018-11-11T06:45:28.360Z,65.51
2018-11-11T06:48:05.847Z,65.65
2018-11-11T06:50:38.517Z,66.22
2018-11-11T06:53:11.411Z,65.43
2018-11-11T06:55:42.896Z,65.18
2018-11-11T06:58:15.775Z,64.90
2018-11-11T07:00:48.499Z,64.89
2018-11-11T07:03:59.544Z,64.89
2018-11-11T07:06:32.833Z,65.12
2018-11-11T07:09:06.611Z,64.86
2018-11-11T07:11:39.481Z,64.50
2018-11-11T07:14:10.989Z,64.50
2018-11-11T07:16:43.645Z,64.22
2018-11-11T07:19:16.612Z,63.22
2018-11-11T07:21:49.486Z,63.22
2018-11-11T07:24:22.350Z,63.39
2018-11-11T07:26:53.492Z,63.09
2018-11-11T07:29:26.376Z,63.09
2018-11-11T07:31:57.470Z,62.90
2018-11-11T07:34:30.417Z,62.76
2018-11-11T07:37:01.629Z,62.54
2018-11-11T07:39:32.911Z,62.20
2018-11-11T07:42:05.781Z,62.19
2018-11-11T07:44:38.593Z,62.03
2018-11-11T07:47:19.011Z,61.82
2018-11-11T07:49:52.169Z,61.91
2018-11-11T07:52:25.118Z,61.95
2018-11-11T07:54:58.563Z,62.00
2018-11-11T07:57:32.267Z,62.08
2018-11-11T08:00:05.139Z,62.02
2018-11-11T08:02:38.252Z,62.19
2018-11-11T08:05:11.154Z,61.60
2018-11-11T08:07:44.110Z,61.47
2018-11-11T08:11:20.049Z,60.91
2018-11-11T08:13:53.272Z,60.62
2018-11-11T08:16:26.161Z,60.62
2018-11-11T08:18:59.129Z,60.66
2018-11-11T08:21:31.988Z,60.63
2018-11-11T08:24:04.532Z,59.85
2018-11-11T08:26:37.413Z,59.85
2018-11-11T08:29:10.417Z,58.01
2018-11-11T08:31:42.324Z,57.08
2018-11-11T08:34:15.416Z,57.11
2018-11-11T08:36:48.151Z,55.17
2018-11-11T08:40:52.984Z,54.20
2018-11-11T08:43:26.140Z,53.47
2018-11-11T08:45:59.263Z,53.47
2018-11-11T08:48:32.346Z,53.71
2018-11-11T08:51:05.519Z,53.68
2018-11-11T08:53:37.394Z,53.78
2018-11-11T08:56:10.410Z,52.62
2018-11-11T08:58:43.993Z,51.24
2018-11-11T09:01:17.158Z,47.76
2018-11-11T09:03:50.576Z,46.16
2018-11-11T09:06:24.255Z,44.69
2018-11-11T09:08:57.129Z,45.15
2018-11-11T09:11:30.227Z,46.26
2018-11-11T09:14:03.549Z,46.77
2018-11-11T09:16:37.219Z,47.58
2018-11-11T09:19:10.763Z,47.58
2018-11-11T09:21:43.948Z,47.03
2018-11-11T09:24:16.989Z,47.58
2018-11-11T09:26:50.276Z,47.58
2018-11-11T09:29:23.590Z,48.64
2018-11-11T09:31:56.520Z,49.68
2018-11-11T09:34:30.709Z,50.90
2018-11-11T09:37:03.674Z,51.16
2018-11-11T09:39:35.327Z,50.61
2018-11-11T09:42:08.703Z,50.86
2018-11-11T09:44:41.745Z,51.35
2018-11-11T09:47:14.489Z,51.06
2018-11-11T09:49:47.459Z,51.06
2018-11-11T09:52:20.998Z,50.96
2018-11-11T09:54:54.259Z,50.96
2018-11-11T09:57:28.269Z,51.05
2018-11-11T10:00:02.962Z,51.73
2018-11-11T10:02:36.259Z,52.74
2018-11-11T10:05:37.305Z,53.32
2018-11-11T10:08:24.511Z,54.94
2018-11-11T10:11:06.884Z,55.69
2018-11-11T10:13:57.257Z,55.83
2018-11-11T10:16:54.711Z,56.54
2018-11-11T10:19:33.106Z,56.77
2018-11-11T10:22:19.416Z,56.46
2018-11-11T10:25:08.530Z,56.40
2018-11-11T10:27:48.271Z,56.40
2018-11-11T10:30:39.667Z,56.60
2018-11-11T10:33:51.128Z,56.51
2018-11-11T10:36:54.983Z,57.03
2018-11-11T10:39:55.262Z,57.62
2018-11-11T10:43:05.493Z,58.07
2018-11-11T10:46:05.933Z,58.12
2018-11-11T10:48:44.494Z,57.77
2018-11-11T10:51:17.699Z,57.22
2018-11-11T10:53:50.446Z,57.03
2018-11-11T10:56:22.026Z,56.60
2018-11-11T10:58:55.190Z,56.61
2018-11-11T11:01:28.305Z,56.66
2018-11-11T11:04:01.462Z,56.85
2018-11-11T11:06:50.412Z,56.62
2018-11-11T11:09:23.256Z,56.98
2018-11-11T11:11:56.328Z,56.92
2018-11-11T11:14:29.413Z,56.44
2018-11-11T11:17:02.149Z,55.73
2018-11-11T11:19:35.109Z,55.20
2018-11-11T11:22:08.514Z,55.36
2018-11-11T11:24:39.892Z,55.93
2018-11-11T11:27:12.687Z,55.79
2018-11-11T11:29:45.508Z,55.84
2018-11-11T11:32:18.517Z,56.07
2018-11-11T11:34:51.402Z,56.07
2018-11-11T11:37:22.457Z,55.94
2018-11-11T11:39:55.253Z,56.01
2018-11-11T11:42:28.252Z,56.26
2018-11-11T11:45:01.263Z,56.81
2018-11-11T11:50:22.346Z,58.09
2018-11-11T11:53:05.401Z,58.02
2018-11-11T11:55:38.523Z,58.22
2018-11-11T11:58:30.976Z,57.89
2018-11-11T12:01:04.652Z,55.46
2018-11-11T12:03:37.404Z,49.26
2018-11-11T12:06:10.549Z,43.67
2018-11-11T12:08:43.595Z,38.49
2018-11-11T12:11:15.044Z,35.31
2018-11-11T12:13:48.167Z,31.32
2018-11-11T12:16:21.276Z,28.58
2018-11-11T12:18:54.544Z,29.53
2018-11-11T12:21:27.433Z,31.14
2018-11-11T12:24:00.401Z,31.05
2018-11-11T12:26:31.905Z,29.88
2018-11-11T12:29:04.744Z,28.46
2018-11-11T12:31:37.527Z,28.46
2018-11-11T12:34:10.470Z,28.59
2018-11-11T12:36:42.039Z,28.03
2018-11-11T12:39:15.394Z,26.76
2018-11-11T12:41:48.243Z,25.94
2018-11-11T12:44:21.145Z,25.85
2018-11-11T12:46:54.361Z,24.79
2018-11-11T12:49:27.360Z,23.79
2018-11-11T12:52:00.152Z,22.85
2018-11-11T12:54:33.423Z,23.16
2018-11-11T12:57:06.257Z,23.30
2018-11-11T12:59:38.945Z,23.75
2018-11-11T13:02:11.925Z,24.86
2018-11-11T13:04:44.769Z,29.45
2018-11-11T13:07:16.291Z,29.45
2018-11-11T13:09:49.243Z,31.90
2018-11-11T13:12:22.427Z,34.74
2018-11-11T13:14:55.152Z,37.52
2018-11-11T13:17:27.933Z,40.71
2018-11-11T13:20:00.662Z,44.05
2018-11-11T13:22:33.490Z,44.05
2018-11-11T13:25:07.252Z,44.65
2018-11-11T13:27:40.467Z,44.63
2018-11-11T13:30:15.498Z,43.75
2018-11-11T13:32:47.352Z,42.97
2018-11-11T13:35:20.192Z,42.32
2018-11-11T13:38:08.992Z,41.57
2018-11-11T13:40:32.464Z,40.80
2018-11-11T13:43:08.630Z,38.97
2018-11-11T13:45:41.525Z,38.84
2018-11-11T13:48:13.037Z,37.76
2018-11-11T13:50:45.978Z,36.88
2018-11-11T13:53:18.971Z,36.84
2018-11-11T13:55:52.048Z,36.84
2018-11-11T13:58:25.020Z,38.35
2018-11-11T14:00:57.972Z,38.35
2018-11-11T14:03:30.696Z,39.46
2018-11-11T14:06:03.511Z,39.46
2018-11-11T14:08:36.554Z,39.50
2018-11-11T14:11:09.984Z,40.42
2018-11-11T14:13:42.612Z,41.41
2018-11-11T14:16:14.249Z,41.41
2018-11-11T14:18:47.143Z,42.77
2018-11-11T14:21:20.428Z,44.01
2018-11-11T14:23:53.149Z,44.41
2018-11-11T14:26:26.213Z,44.82
2018-11-11T14:28:58.762Z,45.47
2018-11-11T14:31:31.653Z,46.14
2018-11-11T14:34:04.389Z,46.14
2018-11-11T14:36:37.153Z,46.43
2018-11-11T14:39:14.620Z,47.61
2018-11-11T14:41:47.470Z,48.77
2018-11-11T14:44:20.243Z,49.13
2018-11-11T14:46:53.130Z,49.92
2018-11-11T14:49:26.359Z,50.17
2018-11-11T14:51:59.203Z,50.19
2018-11-11T14:54:32.132Z,50.49
2018-11-11T14:57:05.073Z,50.70
2018-11-11T14:59:37.636Z,51.34
2018-11-11T15:02:10.499Z,52.06
2018-11-11T15:04:42.350Z,52.06
2018-11-11T15:07:15.479Z,52.75
2018-11-11T15:09:48.405Z,53.59
2018-11-11T15:12:19.894Z,53.59
2018-11-11T15:14:52.662Z,53.66
2018-11-11T15:17:25.495Z,53.98
2018-11-11T15:19:59.557Z,54.32
2018-11-11T15:22:32.575Z,54.43
2018-11-11T15:27:45.248Z,54.32
2018-11-11T15:30:37.368Z,54.63
2018-11-11T15:33:10.570Z,54.95
2018-11-11T15:35:46.541Z,54.88
2018-11-11T15:38:19.453Z,54.93
2018-11-11T15:40:50.891Z,54.99
2018-11-11T15:43:23.668Z,55.28
2018-11-11T15:45:56.617Z,55.51
2018-11-11T15:48:33.075Z,55.51
2018-11-11T15:51:06.143Z,55.51
2018-11-11T15:53:38.975Z,55.51
2018-11-11T15:56:12.155Z,55.44
2018-11-11T15:58:45.138Z,55.88
2018-11-11T16:01:18.229Z,56.23
2018-11-11T16:03:51.272Z,56.20
2018-11-11T16:06:24.509Z,55.99
2018-11-11T16:08:57.386Z,55.96
2018-11-11T16:11:29.033Z,55.98
2018-11-11T16:14:01.980Z,55.90
2018-11-11T16:16:35.232Z,56.11
2018-11-11T16:19:08.045Z,55.93
2018-11-11T16:21:41.141Z,56.02
2018-11-11T16:24:14.107Z,56.26
2018-11-11T16:26:47.105Z,56.26
2018-11-11T16:29:19.972Z,56.33
2018-11-11T16:34:41.676Z,56.27
2018-11-11T16:37:14.692Z,55.93
2018-11-11T16:39:47.763Z,55.65
2018-11-11T16:42:20.664Z,55.51
2018-11-11T16:44:52.851Z,55.51
2018-11-11T16:48:21.682Z,55.65
2018-11-11T16:50:55.501Z,55.37
2018-11-11T16:53:28.424Z,55.37
2018-11-11T16:56:00.024Z,56.36
2018-11-11T16:58:32.964Z,56.67
2018-11-11T17:01:05.913Z,55.55
2018-11-11T17:03:39.245Z,55.44
2018-11-11T17:06:12.417Z,55.32
2018-11-11T17:08:45.139Z,55.71
2018-11-11T17:11:18.134Z,55.72
2018-11-11T17:13:51.106Z,55.72
2018-11-11T17:16:24.241Z,55.69
2018-11-11T17:18:57.379Z,56.07
2018-11-11T17:21:28.924Z,55.28
2018-11-11T17:24:01.643Z,55.10
2018-11-11T17:26:34.816Z,54.96
2018-11-11T17:29:07.473Z,54.96
2018-11-11T17:31:38.851Z,55.03
2018-11-11T17:34:11.650Z,55.37
2018-11-11T17:36:44.641Z,55.32
2018-11-11T17:39:17.771Z,55.25
2018-11-11T17:41:50.668Z,55.45
2018-11-11T17:44:22.072Z,55.45
2018-11-11T17:46:55.237Z,55.91
2018-11-11T17:49:28.242Z,55.75
2018-11-11T17:52:01.454Z,55.75
2018-11-11T17:54:32.894Z,56.60
2018-11-11T17:57:06.690Z,56.80
2018-11-11T17:59:39.691Z,55.43
2018-11-11T18:02:13.666Z,55.44
2018-11-11T18:04:46.616Z,55.98
2018-11-11T18:07:19.670Z,55.98
2018-11-11T18:09:52.684Z,55.68
2018-11-11T18:12:25.605Z,56.34
2018-11-11T18:14:57.087Z,56.34
2018-11-11T18:17:30.410Z,56.03
2018-11-11T18:20:03.365Z,56.19
2018-11-11T18:22:34.648Z,56.09
2018-11-11T18:25:07.473Z,55.90
2018-11-11T18:27:40.540Z,56.04
2018-11-11T18:30:14.886Z,56.40
2018-11-11T18:32:48.104Z,56.88
2018-11-11T18:35:21.425Z,57.11
2018-11-11T18:37:52.832Z,58.41
2018-11-11T18:40:27.090Z,58.41
2018-11-11T18:43:17.634Z,58.33
2018-11-11T18:45:50.527Z,58.13
2018-11-11T18:48:23.454Z,58.88
2018-11-11T18:50:54.885Z,58.71
2018-11-11T18:53:27.803Z,58.65
2018-11-11T18:56:00.758Z,58.68
2018-11-11T18:58:33.817Z,58.73
2018-11-11T19:01:06.811Z,58.93
2018-11-11T19:03:39.637Z,58.78
2018-11-11T19:06:12.507Z,58.87
2018-11-11T19:08:44.102Z,58.87
2018-11-11T19:11:17.256Z,59.56
2018-11-11T19:13:50.423Z,59.56
2018-11-11T19:16:22.253Z,59.42
2018-11-11T19:18:55.533Z,59.82
2018-11-11T19:21:26.901Z,60.09
2018-11-11T19:23:59.880Z,59.89
2018-11-11T19:26:33.117Z,60.13
2018-11-11T19:29:06.249Z,60.56
2018-11-11T19:31:39.378Z,60.69
2018-11-11T19:34:12.463Z,60.93
2018-11-11T19:36:45.154Z,61.59
2018-11-11T19:39:17.969Z,61.73
2018-11-11T19:41:51.390Z,61.96
2018-11-11T19:44:24.108Z,61.78
2018-11-11T19:46:57.234Z,61.56
2018-11-11T19:49:30.128Z,61.32
2018-11-11T19:52:03.108Z,62.38
2018-11-11T19:54:36.364Z,62.20
2018-11-11T19:57:09.386Z,62.47
2018-11-11T19:59:42.492Z,61.80
2018-11-11T20:02:15.438Z,62.09
2018-11-11T20:04:46.902Z,61.30
2018-11-11T20:07:19.810Z,61.18
2018-11-11T20:09:52.678Z,61.84
2018-11-11T20:12:25.621Z,61.45
2018-11-11T20:14:58.429Z,61.45
2018-11-11T20:17:29.915Z,61.71
2018-11-11T20:20:02.974Z,62.02
2018-11-11T20:22:36.242Z,61.87
2018-11-11T20:25:10.393Z,61.93
2018-11-11T20:27:42.389Z,62.26
2018-11-11T20:30:27.553Z,62.75
2018-11-11T20:33:12.681Z,63.39
2018-11-11T20:35:45.626Z,63.33
2018-11-11T20:38:18.631Z,63.19
2018-11-11T20:40:51.685Z,63.04
2018-11-11T20:43:24.809Z,62.87
2018-11-11T20:45:57.657Z,62.98
2018-11-11T20:48:30.543Z,62.98
2018-11-11T20:53:35.790Z,63.26
2018-11-11T20:56:08.767Z,63.67
2018-11-11T20:58:41.677Z,63.66
2018-11-11T21:01:14.618Z,64.01
2018-11-11T21:03:47.746Z,63.73
2018-11-11T21:06:20.619Z,64.08
2018-11-11T21:08:51.897Z,64.08
2018-11-11T21:11:24.827Z,63.95
2018-11-11T21:13:57.896Z,64.05
2018-11-11T21:16:30.657Z,63.81
2018-11-11T21:19:02.113Z,63.70
2018-11-11T21:21:35.244Z,63.95
2018-11-11T21:24:08.142Z,63.87
2018-11-11T21:26:41.127Z,64.05
2018-11-11T21:32:01.243Z,63.58
2018-11-11T21:34:34.506Z,63.67
2018-11-11T21:37:05.894Z,63.62
2018-11-11T21:39:56.961Z,63.60
2018-11-11T21:43:24.144Z,63.69
2018-11-11T21:45:56.639Z,63.26
2018-11-11T21:48:29.416Z,63.26
2018-11-11T21:51:00.669Z,63.24
2018-11-11T21:53:43.533Z,62.88
2018-11-11T21:56:16.508Z,62.88
2018-11-11T21:58:49.475Z,62.76
2018-11-11T22:01:22.123Z,62.74
2018-11-11T22:03:55.157Z,62.74
2018-11-11T22:06:28.147Z,63.08
2018-11-11T22:09:01.115Z,62.90
2018-11-11T22:11:34.205Z,62.37
2018-11-11T22:14:07.626Z,62.65
2018-11-11T22:16:40.651Z,61.80
2018-11-11T22:19:13.638Z,62.06
2018-11-11T22:21:46.628Z,62.06
2018-11-11T22:24:19.526Z,62.06
2018-11-11T22:26:52.404Z,62.35
2018-11-11T22:29:25.248Z,61.97
2018-11-11T22:31:58.171Z,61.98
2018-11-11T22:34:31.144Z,61.81
2018-11-11T22:37:04.357Z,61.85
2018-11-11T22:39:37.249Z,61.75
2018-11-11T22:42:10.643Z,61.90
2018-11-11T22:44:43.910Z,61.93
2018-11-11T22:47:16.604Z,62.01
2018-11-11T22:49:49.415Z,62.01
2018-11-11T22:52:22.360Z,61.76
2018-11-11T22:54:55.240Z,61.89
2018-11-11T22:57:28.436Z,62.17
2018-11-11T23:00:01.398Z,62.18
2018-11-11T23:02:34.456Z,62.30
2018-11-11T23:05:07.410Z,62.07
2018-11-11T23:07:40.429Z,61.90
2018-11-11T23:10:13.525Z,61.77
2018-11-11T23:12:46.725Z,61.83
2018-11-11T23:15:20.542Z,61.83
2018-11-11T23:17:53.439Z,62.01
2018-11-11T23:20:24.887Z,61.82
2018-11-11T23:23:11.974Z,61.67
2018-11-11T23:25:45.213Z,61.50
2018-11-11T23:28:27.448Z,61.37
2018-11-11T23:30:58.889Z,61.30
2018-11-11T23:33:31.635Z,61.13
2018-11-11T23:36:05.529Z,61.01
2018-11-11T23:38:36.983Z,61.01
2018-11-11T23:41:10.247Z,61.04
2018-11-11T23:43:43.392Z,61.00
2018-11-11T23:46:14.478Z,61.06
2018-11-11T23:48:47.435Z,60.95
2018-11-11T23:51:18.627Z,60.84
2018-11-11T23:53:50.504Z,60.78
2018-11-11T23:56:23.393Z,60.85
2018-11-11T23:58:56.490Z,60.93
